Time;durP1;ratioP1;P1;durP2;ratioP2;P2;SDS_P1;SDS_P2;PMS_P1;PMS_P2;Temp;Humidity;BMP_temperature;BMP_pressure;BME280_temperature;BME280_humidity;BME280_pressure;Samples;Min_cycle;Max_cycle;Signal;HPM_P1;HPM_P2
2023/11/23 00:02:05;;;;;;;4.15;0.77;;;;;;;10.93;79.15;101151.53;5001904;28;20072;-45
2023/11/23 00:04:32;;;;;;;2.70;0.68;;;;;;;10.92;79.69;101150.63;5003225;28;20503;-43
2023/11/23 00:06:59;;;;;;;3.95;1.00;;;;;;;10.93;79.27;101142.03;4987114;28;20092;-47
2023/11/23 00:09:26;;;;;;;2.28;0.98;;;;;;;10.95;79.82;101144.66;5008786;28;20510;-54
2023/11/23 00:11:53;;;;;;;2.78;1.00;;;;;;;10.96;79.11;101146.38;5012184;28;20057;-48
2023/11/23 00:14:20;;;;;;;3.97;1.20;;;;;;;10.96;80.03;101140.31;5007392;28;20050;-45
2023/11/23 00:16:47;;;;;;;3.53;1.23;;;;;;;10.96;79.00;101151.56;5004705;28;20050;-44
2023/11/23 00:19:14;;;;;;;2.75;1.00;;;;;;;10.96;79.07;101136.00;5010993;28;20049;-45
2023/11/23 00:21:41;;;;;;;2.38;1.10;;;;;;;10.96;79.15;101136.00;5009985;28;20061;-48
2023/11/23 00:24:07;;;;;;;1.98;1.08;;;;;;;10.96;79.89;101136.00;5006907;28;20053;-42
2023/11/23 00:26:34;;;;;;;3.05;0.90;;;;;;;10.98;78.87;101129.13;5004741;28;20101;-47
2023/11/23 00:29:01;;;;;;;3.05;0.65;;;;;;;11.00;79.77;101132.59;5013003;28;20045;-44
2023/11/23 00:31:27;;;;;;;2.40;1.00;;;;;;;10.98;80.16;101133.44;5008617;28;20056;-43
2023/11/23 00:33:54;;;;;;;2.83;1.10;;;;;;;10.99;80.22;101120.50;5008739;28;20045;-47
2023/11/23 00:36:21;;;;;;;3.83;1.45;;;;;;;11.00;78.70;101117.06;5006800;28;20064;-46
2023/11/23 00:38:48;;;;;;;3.13;0.88;;;;;;;11.00;79.77;101111.88;5000638;28;20041;-46
2023/11/23 00:41:14;;;;;;;1.85;0.63;;;;;;;10.93;79.83;101115.22;5001432;28;20065;-49
2023/11/23 00:43:41;;;;;;;1.20;0.70;;;;;;;10.96;79.23;101115.28;5009145;28;20050;-47
2023/11/23 00:46:08;;;;;;;2.72;0.40;;;;;;;10.92;79.35;101118.69;5005886;28;20046;-48
2023/11/23 00:48:35;;;;;;;0.90;0.60;;;;;;;10.96;80.38;101106.63;5016064;28;20045;-46
2023/11/23 00:51:02;;;;;;;3.67;0.55;;;;;;;11.00;80.08;101117.06;5006273;28;20136;-50
2023/11/23 00:53:29;;;;;;;1.60;0.60;;;;;;;11.00;80.23;101111.88;5010296;28;20073;-47
2023/11/23 00:55:57;;;;;;;1.85;0.90;;;;;;;11.03;80.52;101117.09;5013699;28;20423;-50
2023/11/23 00:58:23;;;;;;;2.95;0.82;;;;;;;11.08;79.38;101109.34;5011058;28;20057;-46
2023/11/23 01:00:50;;;;;;;0.93;0.60;;;;;;;11.07;80.31;101117.16;5004662;28;20049;-46
2023/11/23 01:03:18;;;;;;;2.25;0.82;;;;;;;11.12;79.66;101115.47;5016628;28;20053;-49
2023/11/23 01:05:45;;;;;;;4.40;0.73;;;;;;;11.14;79.74;101117.22;5005563;28;20046;-53
2023/11/23 01:08:14;;;;;;;2.20;0.98;;;;;;;11.10;79.42;101115.44;5013566;28;20045;-50
2023/11/23 01:10:41;;;;;;;2.17;0.77;;;;;;;11.15;79.23;101121.56;5011655;28;20172;-48
2023/11/23 01:13:08;;;;;;;1.67;0.73;;;;;;;11.14;79.67;101108.56;5010856;28;20047;-44
2023/11/23 01:15:34;;;;;;;1.70;0.85;;;;;;;11.16;79.58;101119.84;5011654;28;20054;-49
2023/11/23 01:18:01;;;;;;;0.93;0.60;;;;;;;11.15;79.26;101120.69;5013269;28;20054;-47
2023/11/23 01:20:27;;;;;;;2.17;0.70;;;;;;;11.17;79.45;101114.69;5011842;28;20049;-47
2023/11/23 01:22:54;;;;;;;1.38;0.45;;;;;;;11.19;79.64;101112.94;5011764;28;20057;-41
2023/11/23 01:25:21;;;;;;;1.08;0.57;;;;;;;11.23;79.98;101119.06;5009764;28;20058;-48
2023/11/23 01:27:48;;;;;;;0.77;0.40;;;;;;;11.24;79.57;101113.03;5004811;28;20080;-48
2023/11/23 01:30:14;;;;;;;1.13;0.60;;;;;;;11.23;78.92;101123.38;5005590;28;20060;-53
2023/11/23 01:32:41;;;;;;;1.70;0.77;;;;;;;11.23;80.22;101129.44;5013677;28;20146;-50
2023/11/23 01:35:08;;;;;;;2.25;0.43;;;;;;;11.24;79.90;101125.09;5005484;28;20615;-42
2023/11/23 01:37:35;;;;;;;1.13;0.60;;;;;;;11.25;78.57;101138.09;5016225;28;20525;-44
2023/11/23 01:40:04;;;;;;;1.10;0.40;;;;;;;11.27;79.52;101131.22;5006599;28;20560;-42
2023/11/23 01:42:30;;;;;;;0.80;0.55;;;;;;;11.26;78.83;101136.38;5007370;28;20502;-44
2023/11/23 01:44:57;;;;;;;1.20;0.50;;;;;;;11.29;79.86;101139.88;5008503;28;20054;-52
2023/11/23 01:47:26;;;;;;;2.75;0.90;;;;;;;11.27;80.08;101126.03;5013374;28;20056;-50
2023/11/23 01:49:57;;;;;;;2.15;0.52;;;;;;;11.34;79.48;101120.91;5015951;28;20454;-48
2023/11/23 01:52:24;;;;;;;1.70;0.95;;;;;;;11.34;79.48;101120.91;5006728;28;20046;-45
2023/11/23 01:54:51;;;;;;;1.92;0.60;;;;;;;11.37;79.10;101115.75;5015998;28;20517;-48
2023/11/23 01:57:19;;;;;;;1.20;0.60;;;;;;;11.40;78.34;101113.19;5010564;28;20058;-46
2023/11/23 01:59:46;;;;;;;2.78;0.50;;;;;;;11.42;78.05;101119.28;5011760;28;20045;-47
2023/11/23 02:02:13;;;;;;;0.55;0.32;;;;;;;11.42;78.29;101119.28;5008307;28;20037;-46
2023/11/23 02:04:39;;;;;;;1.52;0.75;;;;;;;11.46;78.35;101114.97;5013674;28;20054;-46
2023/11/23 02:07:06;;;;;;;1.42;0.77;;;;;;;11.49;77.84;101115.91;5016071;28;20132;-42
2023/11/23 02:09:33;;;;;;;0.90;0.55;;;;;;;11.50;77.90;101119.34;5010405;28;20127;-44
2023/11/23 02:12:01;;;;;;;1.92;0.73;;;;;;;11.51;78.15;101124.56;5011707;28;20502;-49
2023/11/23 02:14:31;;;;;;;0.88;0.52;;;;;;;11.52;79.01;101121.09;5012236;28;20056;-47
2023/11/23 02:16:58;;;;;;;2.15;0.55;;;;;;;11.53;78.41;101127.16;5006752;28;20049;-45
2023/11/23 02:19:24;;;;;;;1.33;0.60;;;;;;;11.53;78.23;101128.06;5011123;28;20053;-48
2023/11/23 02:21:51;;;;;;;2.08;0.95;;;;;;;11.52;77.63;101110.72;5008393;28;20422;-42
2023/11/23 02:24:18;;;;;;;1.42;0.45;;;;;;;11.53;78.85;101115.06;5007876;28;20053;-44
2023/11/23 02:26:44;;;;;;;1.23;0.50;;;;;;;11.56;78.95;101112.50;5004623;28;20132;-44
2023/11/23 02:29:11;;;;;;;2.00;0.75;;;;;;;11.56;78.47;101111.63;5013792;28;20495;-48
2023/11/23 02:31:38;;;;;;;2.13;0.90;;;;;;;11.56;78.22;101104.69;5005359;28;20057;-46
2023/11/23 02:34:06;;;;;;;1.92;0.60;;;;;;;11.56;77.49;101109.91;5006472;28;20482;-43
2023/11/23 02:36:33;;;;;;;1.05;0.55;;;;;;;11.60;79.05;101109.94;5007248;28;20049;-48
2023/11/23 02:39:00;;;;;;;2.38;0.43;;;;;;;11.61;78.97;101114.25;5018064;28;20129;-51
2023/11/23 02:41:26;;;;;;;0.88;0.52;;;;;;;11.56;78.16;101112.50;5007033;28;20057;-48
2023/11/23 02:43:53;;;;;;;1.58;0.50;;;;;;;11.61;78.80;101116.84;5005228;28;20116;-49
2023/11/23 02:46:20;;;;;;;1.92;0.50;;;;;;;11.64;78.79;101119.50;5007453;28;20058;-45
2023/11/23 02:48:46;;;;;;;2.40;0.60;;;;;;;11.67;77.60;101119.53;4998949;28;20116;-46
2023/11/23 02:51:14;;;;;;;3.17;0.63;;;;;;;11.69;78.12;101110.03;5003812;28;20656;-42
2023/11/23 02:53:47;;;;;;;0.65;0.40;;;;;;;11.68;77.38;101106.56;5008867;28;20072;-46
2023/11/23 02:56:15;;;;;;;2.72;0.70;;;;;;;11.69;77.41;101108.28;5009092;28;20045;-52
2023/11/23 02:58:42;;;;;;;3.53;0.60;;;;;;;11.68;77.47;101116.06;5013579;28;20053;-44
2023/11/23 03:01:09;;;;;;;1.98;0.93;;;;;;;11.73;78.70;101122.19;5011010;28;20159;-44
2023/11/23 03:03:35;;;;;;;0.82;0.30;;;;;;;11.71;78.49;101116.09;4994300;28;20077;-48
2023/11/23 03:06:03;;;;;;;1.73;0.63;;;;;;;11.73;77.79;101114.41;5002027;28;20103;-44
2023/11/23 03:08:30;;;;;;;0.90;0.70;;;;;;;11.74;77.01;101123.91;5007667;28;20042;-43
2023/11/23 03:10:56;;;;;;;1.30;0.43;;;;;;;11.73;78.28;101119.59;4989320;28;20042;-45
2023/11/23 03:13:24;;;;;;;2.17;0.80;;;;;;;11.75;77.27;101111.81;5008014;28;20079;-47
2023/11/23 03:15:51;;;;;;;1.05;0.60;;;;;;;11.74;77.71;101108.34;5004840;28;20059;-46
2023/11/23 03:18:18;;;;;;;0.60;0.20;;;;;;;11.72;78.37;101102.25;4999765;28;20054;-49
2023/11/23 03:20:45;;;;;;;4.25;2.22;;;;;;;11.72;77.38;101097.06;4986578;28;20457;-48
2023/11/23 03:23:12;;;;;;;1.42;0.47;;;;;;;11.75;78.15;101101.44;5005630;28;20049;-51
2023/11/23 03:25:39;;;;;;;0.75;0.40;;;;;;;11.73;77.48;101097.94;5006654;28;20041;-49
2023/11/23 03:28:07;;;;;;;1.52;0.50;;;;;;;11.75;77.58;101084.13;5004053;28;20058;-48
2023/11/23 03:30:35;;;;;;;1.02;0.52;;;;;;;11.76;77.22;101083.25;5005271;28;20064;-47
2023/11/23 03:33:03;;;;;;;3.92;0.43;;;;;;;11.75;77.97;101081.53;5006792;28;20544;-50
2023/11/23 03:35:31;;;;;;;2.53;2.33;;;;;;;11.75;77.56;101081.53;5005723;28;20753;-47
2023/11/23 03:37:58;;;;;;;2.78;0.80;;;;;;;11.77;77.01;101077.25;5014878;28;20382;-42
2023/11/23 03:40:24;;;;;;;2.10;0.40;;;;;;;11.79;77.55;101072.06;5007893;28;20073;-45
2023/11/23 03:42:51;;;;;;;2.42;0.95;;;;;;;11.78;77.67;101076.38;5008590;28;20478;-44
2023/11/23 03:45:17;;;;;;;1.73;0.75;;;;;;;11.77;77.06;101074.66;5020297;28;20053;-49
2023/11/23 03:47:45;;;;;;;1.73;0.75;;;;;;;11.77;77.59;101078.97;5005133;28;20069;-48
2023/11/23 03:50:12;;;;;;;1.45;0.43;;;;;;;11.79;77.33;101078.09;5007982;28;20240;-45
2023/11/23 03:52:38;;;;;;;5.25;0.70;;;;;;;11.78;78.18;101080.69;5006396;28;20041;-43
2023/11/23 03:55:05;;;;;;;2.08;1.00;;;;;;;11.78;78.00;101071.19;5017755;28;20490;-49
2023/11/23 03:57:32;;;;;;;1.52;0.50;;;;;;;11.77;77.99;101074.66;5016259;28;20054;-53
2023/11/23 03:59:59;;;;;;;2.13;0.65;;;;;;;11.78;78.19;101071.19;5015183;28;20061;-45
2023/11/23 04:02:26;;;;;;;1.45;0.60;;;;;;;11.78;77.74;101066.00;5007927;28;20050;-50
2023/11/23 04:04:53;;;;;;;2.38;0.85;;;;;;;11.80;77.48;101076.38;5002176;28;20047;-51
2023/11/23 04:07:19;;;;;;;3.70;0.82;;;;;;;11.79;78.20;101069.47;5002289;28;20058;-48
2023/11/23 04:09:46;;;;;;;1.38;0.45;;;;;;;11.79;77.94;101065.13;5010389;28;20045;-50
2023/11/23 04:12:13;;;;;;;1.63;0.50;;;;;;;11.80;77.31;101058.22;5010294;28;20141;-50
2023/11/23 04:14:39;;;;;;;3.00;0.32;;;;;;;11.80;77.28;101059.09;5014130;28;20093;-46
2023/11/23 04:17:06;;;;;;;2.08;0.50;;;;;;;11.81;77.92;101060.84;5013844;28;20100;-44
2023/11/23 04:19:33;;;;;;;2.88;0.50;;;;;;;11.81;77.38;101055.66;5015546;28;20056;-45
2023/11/23 04:22:00;;;;;;;1.83;0.63;;;;;;;11.80;77.08;101053.91;4988463;28;20045;-50
2023/11/23 04:24:27;;;;;;;1.40;0.50;;;;;;;11.78;78.38;101050.41;5020010;28;20053;-49
2023/11/23 04:26:54;;;;;;;1.60;0.55;;;;;;;11.79;77.36;101056.50;5015203;28;20054;-54
2023/11/23 04:29:21;;;;;;;1.10;0.68;;;;;;;11.78;78.08;101053.00;5011969;28;20454;-46
2023/11/23 04:31:47;;;;;;;2.35;1.30;;;;;;;11.80;77.21;101053.91;5010967;28;20052;-47
2023/11/23 04:34:14;;;;;;;1.55;0.70;;;;;;;11.82;77.08;101040.91;5011613;28;20053;-48
2023/11/23 04:36:41;;;;;;;2.30;0.47;;;;;;;11.80;78.39;101050.44;5009110;28;20070;-49
2023/11/23 04:39:07;;;;;;;3.50;2.63;;;;;;;11.81;77.20;101053.06;5011729;28;20491;-51
2023/11/23 04:41:34;;;;;;;3.00;1.02;;;;;;;11.79;77.56;101057.34;5007752;28;20054;-48
2023/11/23 04:44:01;;;;;;;1.92;0.73;;;;;;;11.81;78.20;101044.38;5015631;28;20042;-49
2023/11/23 04:46:29;;;;;;;2.08;0.60;;;;;;;11.80;78.17;101053.91;5006196;28;20521;-50
2023/11/23 04:48:56;;;;;;;2.97;0.43;;;;;;;11.78;77.53;101049.53;5009137;28;20068;-50
2023/11/23 04:51:23;;;;;;;3.10;0.77;;;;;;;11.79;77.15;101051.31;5008967;28;20080;-50
2023/11/23 04:53:49;;;;;;;1.58;0.60;;;;;;;11.77;78.17;101051.28;5010133;28;20148;-53
2023/11/23 04:56:17;;;;;;;3.42;0.88;;;;;;;11.75;78.42;101050.38;5006794;28;20054;-46
2023/11/23 04:58:44;;;;;;;3.70;0.70;;;;;;;11.78;78.39;101059.91;5014237;28;20050;-48
2023/11/23 05:01:11;;;;;;;3.20;0.55;;;;;;;11.78;78.41;101058.22;5008926;28;20124;-43
2023/11/23 05:03:38;;;;;;;2.85;0.73;;;;;;;11.75;78.09;101050.38;5010718;28;20073;-44
2023/11/23 05:06:06;;;;;;;3.20;0.60;;;;;;;11.75;78.42;101055.59;5001185;28;20046;-49
2023/11/23 05:08:34;;;;;;;4.18;2.03;;;;;;;11.76;77.58;101052.13;5013393;28;20062;-47
2023/11/23 05:11:01;;;;;;;2.33;0.50;;;;;;;11.73;77.16;101046.94;5002611;28;20123;-48
2023/11/23 05:13:28;;;;;;;2.65;0.50;;;;;;;11.73;77.03;101046.94;5013922;28;20046;-50
2023/11/23 05:15:54;;;;;;;1.58;0.65;;;;;;;11.70;77.67;101046.91;5011737;28;20057;-48
2023/11/23 05:18:21;;;;;;;2.22;0.90;;;;;;;11.67;78.05;101041.66;5006033;28;20046;-45
2023/11/23 05:20:48;;;;;;;1.05;0.55;;;;;;;11.64;77.18;101046.81;5006811;28;20128;-53
2023/11/23 05:23:14;;;;;;;3.88;2.78;;;;;;;11.63;78.41;101037.31;5003021;28;20469;-46
2023/11/23 05:25:41;;;;;;;1.95;0.88;;;;;;;11.57;78.67;101036.41;5016268;28;20042;-47
2023/11/23 05:28:08;;;;;;;3.13;0.80;;;;;;;11.56;77.30;101039.84;5021860;28;20065;-45
2023/11/23 05:30:34;;;;;;;2.35;0.90;;;;;;;11.53;77.48;101039.84;5013874;28;20042;-42
2023/11/23 05:33:01;;;;;;;2.60;2.42;;;;;;;11.51;77.47;101038.94;5001552;28;20517;-47
2023/11/23 05:35:30;;;;;;;3.45;3.25;;;;;;;11.52;78.38;101037.22;5009285;28;20053;-47
2023/11/23 05:37:57;;;;;;;1.42;0.43;;;;;;;11.45;77.99;101046.66;4998122;28;20054;-44
2023/11/23 05:40:24;;;;;;;1.45;1.00;;;;;;;11.50;77.58;101042.41;5002106;28;20053;-52
2023/11/23 05:42:51;;;;;;;2.17;0.68;;;;;;;11.50;77.58;101052.78;5004306;28;20054;-48
2023/11/23 05:45:30;;;;;;;3.40;0.93;;;;;;;11.52;78.83;101038.06;5006826;28;20630;-43
2023/11/23 05:47:57;;;;;;;1.30;0.50;;;;;;;11.47;78.79;101034.59;5006926;28;20057;-47
2023/11/23 05:50:24;;;;;;;1.40;0.82;;;;;;;11.50;77.64;101034.63;5007436;28;20056;-45
2023/11/23 05:52:50;;;;;;;2.03;0.65;;;;;;;11.49;78.01;101032.88;5009101;28;20046;-47
2023/11/23 05:55:17;;;;;;;2.78;1.98;;;;;;;11.51;78.63;101033.75;5009552;28;20441;-48
2023/11/23 05:57:43;;;;;;;3.55;1.17;;;;;;;11.52;78.29;101027.69;5012889;28;20046;-47
2023/11/23 06:00:11;;;;;;;1.30;0.63;;;;;;;11.55;78.65;101038.13;5009773;28;20046;-49
2023/11/23 06:02:38;;;;;;;1.98;0.45;;;;;;;11.50;77.61;101037.22;5015098;28;20041;-52
2023/11/23 06:05:06;;;;;;;2.47;0.43;;;;;;;11.52;77.45;101048.44;5010016;28;20075;-44
2023/11/23 06:07:32;;;;;;;1.70;0.50;;;;;;;11.54;78.38;101046.75;5014575;28;20095;-51
2023/11/23 06:10:01;;;;;;;1.85;0.90;;;;;;;11.53;77.72;101045.03;5013729;28;20046;-46
2023/11/23 06:12:28;;;;;;;2.38;0.93;;;;;;;11.50;77.32;101042.41;5014842;28;20057;-52
2023/11/23 06:14:54;;;;;;;4.55;1.33;;;;;;;11.52;78.42;101043.25;5020084;28;20417;-48
2023/11/23 06:17:21;;;;;;;2.22;0.52;;;;;;;11.51;77.32;101041.53;5006055;28;20137;-47
2023/11/23 06:19:48;;;;;;;2.08;0.93;;;;;;;11.50;77.59;101024.25;5017341;28;20046;-48
2023/11/23 06:22:17;;;;;;;1.27;0.60;;;;;;;11.45;77.92;101020.72;5017880;28;20049;-50
2023/11/23 06:24:44;;;;;;;4.63;0.65;;;;;;;11.45;77.82;101020.72;5013483;28;20137;-48
2023/11/23 06:27:10;;;;;;;5.07;2.58;;;;;;;11.41;77.42;101025.00;5016209;28;20458;-47
2023/11/23 06:29:37;;;;;;;1.38;0.63;;;;;;;11.40;78.10;101027.59;5013164;28;20041;-53
2023/11/23 06:32:04;;;;;;;2.42;1.85;;;;;;;11.38;78.06;101034.50;5012530;28;20445;-49
2023/11/23 06:34:32;;;;;;;2.30;0.60;;;;;;;11.36;78.28;101020.63;5002386;28;20050;-43
2023/11/23 06:36:59;;;;;;;3.08;0.70;;;;;;;11.28;77.12;101029.22;5011034;28;20073;-50
2023/11/23 06:39:26;;;;;;;2.38;0.80;;;;;;;11.26;77.76;101023.16;5007930;28;20104;-46
2023/11/23 06:41:54;;;;;;;3.17;0.50;;;;;;;11.21;77.40;101017.03;5009387;28;20049;-47
2023/11/23 06:44:21;;;;;;;0.70;0.70;;;;;;;11.15;77.09;101014.38;5008352;28;20133;-49
2023/11/23 06:46:48;;;;;;;0.80;0.80;;;;;;;11.12;77.24;101006.56;4984709;28;20539;-40
2023/11/23 06:49:15;;;;;;;1.42;0.40;;;;;;;11.11;77.81;101004.84;5003590;28;20100;-48
2023/11/23 06:51:42;;;;;;;2.50;0.50;;;;;;;11.04;78.25;100997.00;5005528;28;20690;-47
2023/11/23 06:54:09;;;;;;;1.58;0.85;;;;;;;10.99;77.75;101006.44;5004166;28;20054;-51
2023/11/23 06:56:36;;;;;;;3.45;0.60;;;;;;;10.95;77.49;101002.09;5004020;28;20050;-50
2023/11/23 06:59:03;;;;;;;1.48;0.40;;;;;;;10.92;78.13;100997.72;5001704;28;20057;-49
2023/11/23 07:01:29;;;;;;;3.22;2.92;;;;;;;10.89;77.68;101000.28;5001940;28;20440;-44
2023/11/23 07:03:56;;;;;;;2.92;0.73;;;;;;;10.89;78.61;101004.59;5007397;28;20057;-46
2023/11/23 07:06:24;;;;;;;2.78;0.63;;;;;;;10.85;77.80;101006.31;5001470;28;20053;-45
2023/11/23 07:08:51;;;;;;;2.50;0.60;;;;;;;10.84;78.19;101006.28;5015606;28;20105;-52
2023/11/23 07:11:19;;;;;;;2.97;0.55;;;;;;;10.86;78.01;101010.63;5008971;28;20050;-50
2023/11/23 07:13:47;;;;;;;3.65;1.73;;;;;;;10.88;78.82;101013.22;5016599;28;20449;-51
2023/11/23 07:16:14;;;;;;;2.05;0.80;;;;;;;10.89;78.60;101021.03;4996715;28;20049;-45
2023/11/23 07:18:41;;;;;;;3.55;0.98;;;;;;;10.94;78.78;101013.28;4986220;28;20516;-48
2023/11/23 07:21:09;;;;;;;2.78;0.77;;;;;;;10.93;78.53;101004.66;5005396;28;20049;-50
2023/11/23 07:23:36;;;;;;;2.67;0.63;;;;;;;10.95;78.66;100999.50;4988305;28;20121;-43
2023/11/23 07:26:03;;;;;;;1.35;0.73;;;;;;;10.92;77.38;101009.81;5008656;28;20050;-53
2023/11/23 07:28:32;;;;;;;2.85;0.85;;;;;;;10.91;77.52;101005.50;5008956;28;20048;-53
2023/11/23 07:31:01;;;;;;;4.70;0.60;;;;;;;10.91;77.54;101008.09;5009415;28;20045;-51
2023/11/23 07:33:34;;;;;;;3.85;0.70;;;;;;;10.89;77.65;101010.66;5010327;28;20137;-50
2023/11/23 07:36:02;;;;;;;2.80;0.85;;;;;;;10.93;77.86;101006.38;5004229;28;20058;-48
2023/11/23 07:38:29;;;;;;;2.65;2.42;;;;;;;10.96;77.66;101002.94;5015667;28;20135;-49
2023/11/23 07:40:57;;;;;;;4.85;0.70;;;;;;;10.96;77.65;101001.22;4981911;28;20057;-48
2023/11/23 07:43:24;;;;;;;3.72;0.80;;;;;;;10.99;78.09;101015.94;5010096;28;20057;-46
2023/11/23 07:45:51;;;;;;;1.25;0.60;;;;;;;10.89;78.73;101005.47;4990261;28;20050;-55
2023/11/23 07:48:18;;;;;;;1.77;1.13;;;;;;;10.99;78.53;101016.81;5007269;28;20050;-44
2023/11/23 07:50:45;;;;;;;2.13;0.70;;;;;;;11.00;78.14;101023.72;5010825;28;20513;-45
2023/11/23 07:53:12;;;;;;;2.13;0.65;;;;;;;11.00;77.46;101008.19;5012889;28;20054;-49
2023/11/23 07:55:39;;;;;;;4.20;1.23;;;;;;;11.08;78.41;101005.66;5011995;28;20437;-51
2023/11/23 07:58:07;;;;;;;1.60;1.00;;;;;;;11.09;77.52;101011.72;5013589;28;20115;-41
2023/11/23 08:00:37;;;;;;;3.28;0.80;;;;;;;11.05;78.15;101022.06;5020091;28;20480;-46
2023/11/23 08:03:05;;;;;;;1.08;0.63;;;;;;;11.11;77.72;101017.81;5011490;28;20050;-50
2023/11/23 08:05:32;;;;;;;5.85;2.30;;;;;;;11.07;77.98;101018.63;5013696;28;20437;-42
2023/11/23 08:07:58;;;;;;;1.92;0.68;;;;;;;11.11;77.04;101026.44;5014180;28;20052;-43
2023/11/23 08:10:25;;;;;;;3.17;0.60;;;;;;;11.12;77.48;101029.91;5018853;28;20129;-49
2023/11/23 08:12:53;;;;;;;1.23;1.00;;;;;;;11.15;78.10;101037.72;5014945;28;20518;-49
2023/11/23 08:15:21;;;;;;;0.80;0.57;;;;;;;11.13;78.06;101044.59;5011050;28;20060;-46
2023/11/23 08:17:48;;;;;;;3.13;0.70;;;;;;;11.11;77.32;101033.38;5012317;28;20042;-47
2023/11/23 08:20:27;;;;;;;1.90;1.05;;;;;;;11.14;77.11;101015.22;5012978;28;20034;-45
2023/11/23 08:22:54;;;;;;;2.95;0.52;;;;;;;11.09;77.02;101025.56;5012870;28;20132;-47
2023/11/23 08:25:21;;;;;;;6.43;0.55;;;;;;;11.08;77.51;101030.72;5014428;28;20107;-45
2023/11/23 08:27:47;;;;;;;2.25;0.88;;;;;;;11.11;77.76;101026.44;5011520;28;20343;-46
2023/11/23 08:30:15;;;;;;;1.10;0.50;;;;;;;11.10;78.11;101029.00;5016534;28;20054;-49
2023/11/23 08:32:42;;;;;;;3.05;0.50;;;;;;;11.04;77.95;101020.31;5013025;28;20053;-47
2023/11/23 08:35:09;;;;;;;3.85;1.02;;;;;;;11.04;77.23;101015.13;5020050;28;20407;-47
2023/11/23 08:37:35;;;;;;;3.05;2.47;;;;;;;11.02;77.18;101019.41;5021728;28;20045;-46
2023/11/23 08:40:05;;;;;;;2.17;1.25;;;;;;;11.00;77.62;101008.19;5014104;28;20045;-50
2023/11/23 08:42:33;;;;;;;3.40;0.75;;;;;;;10.96;78.05;101021.06;5019588;28;20049;-44
2023/11/23 08:45:00;;;;;;;2.83;1.52;;;;;;;10.97;77.81;101010.72;5015422;28;20455;-50
2023/11/23 08:47:28;;;;;;;2.53;1.35;;;;;;;10.96;77.70;101006.41;5017128;28;20520;-49
2023/11/23 08:49:55;;;;;;;2.47;0.80;;;;;;;11.05;78.50;101024.66;5005121;28;20080;-51
2023/11/23 08:52:22;;;;;;;3.53;1.52;;;;;;;11.25;78.74;101023.97;5003205;28;20469;-44
2023/11/23 08:54:49;;;;;;;2.55;0.60;;;;;;;11.52;78.29;101027.69;5010423;28;20042;-52
2023/11/23 08:57:15;;;;;;;3.38;2.72;;;;;;;11.93;78.01;101025.44;4996909;28;20085;-45
2023/11/23 08:59:42;;;;;;;1.95;0.77;;;;;;;12.39;77.00;101022.28;5017751;28;20046;-44
2023/11/23 09:02:09;;;;;;;1.77;1.00;;;;;;;12.64;75.61;101031.94;5013074;28;20140;-47
2023/11/23 09:04:46;;;;;;;5.70;0.77;;;;;;;12.85;75.65;101031.16;5014164;28;20070;-46
2023/11/23 09:07:13;;;;;;;2.33;0.90;;;;;;;13.25;74.80;101035.63;4993052;28;20069;-46
2023/11/23 09:09:40;;;;;;;0.98;0.63;;;;;;;13.75;75.08;101046.13;5010287;28;20554;-46
2023/11/23 09:12:07;;;;;;;2.05;1.30;;;;;;;14.46;73.97;101039.06;5004953;28;20049;-45
2023/11/23 09:14:34;;;;;;;2.78;0.88;;;;;;;15.22;71.53;101040.47;5011203;28;20057;-50
2023/11/23 09:17:14;;;;;;;2.63;1.48;;;;;;;15.92;69.76;101022.56;4994092;28;20050;-46
2023/11/23 09:19:41;;;;;;;1.95;0.80;;;;;;;16.57;69.20;101025.38;5012337;28;20100;-44
2023/11/23 09:22:10;;;;;;;3.13;1.15;;;;;;;17.11;67.53;101025.56;5012239;28;20050;-48
2023/11/23 09:24:38;;;;;;;3.38;1.05;;;;;;;17.78;67.29;101012.31;5011192;28;20057;-46
2023/11/23 09:27:06;;;;;;;1.95;0.90;;;;;;;18.29;65.66;101000.03;5017107;28;20132;-46
2023/11/23 09:29:33;;;;;;;2.08;0.68;;;;;;;18.65;63.88;100995.81;5002987;28;20042;-43
2023/11/23 09:32:00;;;;;;;3.42;1.27;;;;;;;18.95;62.48;100996.91;5015639;28;20049;-46
2023/11/23 09:34:27;;;;;;;5.10;0.82;;;;;;;19.31;61.24;101000.50;5010336;28;21325;-49
2023/11/23 09:36:54;;;;;;;1.33;0.95;;;;;;;19.60;60.45;100996.28;5017685;28;20054;-52
2023/11/23 09:39:21;;;;;;;2.03;0.90;;;;;;;19.95;60.23;100998.88;5006714;28;20133;-44
2023/11/23 09:41:51;;;;;;;3.55;0.70;;;;;;;20.12;58.93;100991.44;5011921;28;20081;-45
2023/11/23 09:44:18;;;;;;;2.78;0.70;;;;;;;20.27;57.33;100991.94;5011770;28;20742;-49
2023/11/23 09:46:47;;;;;;;3.80;1.02;;;;;;;20.48;56.93;100987.81;5015289;28;20128;-45
2023/11/23 09:49:15;;;;;;;3.17;0.77;;;;;;;20.72;56.32;100985.34;5016082;28;20049;-51
2023/11/23 09:51:44;;;;;;;1.95;0.55;;;;;;;20.86;55.63;100986.69;5023858;28;20107;-49
2023/11/23 09:54:14;;;;;;;2.67;1.02;;;;;;;21.04;55.37;100988.78;5010542;28;20115;-46
2023/11/23 09:56:42;;;;;;;1.77;0.60;;;;;;;21.20;55.18;100980.38;5016682;28;20084;-48
2023/11/23 09:59:09;;;;;;;1.83;1.00;;;;;;;21.37;53.91;100992.13;5016708;28;20099;-53
2023/11/23 10:01:40;;;;;;;2.05;0.85;;;;;;;21.50;53.29;100980.28;5010626;28;20046;-53
2023/11/23 10:04:07;;;;;;;0.75;0.43;;;;;;;21.57;52.77;100988.84;5012333;28;20046;-47
2023/11/23 10:06:34;;;;;;;1.80;0.50;;;;;;;21.65;53.02;101001.78;5022883;28;20046;-51
2023/11/23 10:09:01;;;;;;;3.10;1.05;;;;;;;21.68;51.64;100991.97;5016864;28;20120;-53
2023/11/23 10:11:29;;;;;;;3.05;0.95;;;;;;;21.77;51.83;100990.84;5018173;28;20046;-55
2023/11/23 10:13:55;;;;;;;3.67;1.02;;;;;;;21.70;51.10;100989.28;5013720;28;20049;-48
2023/11/23 10:16:22;;;;;;;2.58;0.65;;;;;;;21.73;50.96;100994.47;5021375;28;20053;-47
2023/11/23 10:18:49;;;;;;;1.98;0.73;;;;;;;21.68;50.84;100991.09;5009586;28;20053;-54
2023/11/23 10:21:16;;;;;;;2.92;0.47;;;;;;;21.49;50.39;100991.75;5016433;28;20054;-47
2023/11/23 10:23:44;;;;;;;2.30;0.82;;;;;;;21.17;50.51;100980.47;5019418;28;20065;-49
2023/11/23 10:26:10;;;;;;;2.50;0.90;;;;;;;20.65;50.40;100983.81;5025429;28;20056;-48
2023/11/23 10:28:38;;;;;;;2.38;0.98;;;;;;;20.03;51.54;100965.41;5018600;28;20107;-47
2023/11/23 10:31:05;;;;;;;4.20;1.30;;;;;;;19.35;51.88;100974.13;5020100;28;20099;-50
2023/11/23 10:33:35;;;;;;;2.50;0.40;;;;;;;18.81;53.31;100957.00;5018609;28;20061;-45
2023/11/23 10:36:05;;;;;;;6.00;0.47;;;;;;;18.44;53.90;100958.69;4992985;28;20053;-50
2023/11/23 10:38:38;;;;;;;13.77;1.73;;;;;;;18.14;54.71;100950.53;5013897;28;20531;-50
2023/11/23 10:41:11;;;;;;;4.50;0.85;;;;;;;17.77;55.35;100950.31;4995952;28;20705;-47
2023/11/23 10:43:41;;;;;;;0.95;0.82;;;;;;;17.40;56.07;100953.59;4998379;28;20046;-45
2023/11/23 10:46:10;;;;;;;1.40;1.05;;;;;;;17.35;56.15;100953.66;5009846;28;20046;-49
2023/11/23 10:48:38;;;;;;;2.83;0.88;;;;;;;17.20;56.44;100949.53;5007833;28;20046;-48
2023/11/23 10:51:06;;;;;;;1.85;0.70;;;;;;;16.74;57.22;100937.97;4990123;28;20494;-49
2023/11/23 10:53:33;;;;;;;0.93;0.60;;;;;;;16.45;57.99;100927.88;5018908;28;20048;-45
2023/11/23 10:56:09;;;;;;;0.85;0.45;;;;;;;16.27;58.82;100933.34;5007128;28;20059;-43
2023/11/23 10:58:41;;;;;;;1.00;0.88;;;;;;;16.09;58.73;100927.47;5017969;28;20049;-53
2023/11/23 11:01:10;;;;;;;2.95;0.95;;;;;;;15.87;59.69;100916.38;5012080;28;20052;-47
2023/11/23 11:03:38;;;;;;;0.90;0.60;;;;;;;15.67;60.60;100923.53;5016259;28;20067;-46
2023/11/23 11:06:09;;;;;;;1.50;0.93;;;;;;;15.67;61.00;100943.53;5021289;28;20042;-44
2023/11/23 11:08:38;;;;;;;0.63;0.50;;;;;;;15.62;61.38;100921.84;5017636;28;20105;-48
2023/11/23 11:11:11;;;;;;;3.17;0.77;;;;;;;15.50;60.70;100931.50;5014277;28;20041;-46
2023/11/23 11:13:42;;;;;;;2.38;0.88;;;;;;;15.53;61.17;100925.38;5003202;28;20051;-53
2023/11/23 11:16:12;;;;;;;1.52;0.82;;;;;;;15.48;60.82;100919.34;4995742;28;20500;-45
2023/11/23 11:18:39;;;;;;;3.03;0.70;;;;;;;15.41;61.59;100913.34;4980527;28;20048;-47
2023/11/23 11:21:11;;;;;;;1.48;0.60;;;;;;;15.42;62.17;100908.09;5014300;28;20045;-44
2023/11/23 11:23:40;;;;;;;1.17;0.73;;;;;;;15.49;62.59;100918.47;5018080;28;20072;-51
2023/11/23 11:26:09;;;;;;;3.17;0.93;;;;;;;15.57;61.92;100910.56;5022356;28;20552;-45